sensor_id;sensor_type;location;lat;lon;timestamp;P1;durP1;ratioP1;P2;durP2;ratioP2
2712;SDS011;1366;47.988;7.856;2022-09-28T04:02:27;1.27;;;1.10;;
2712;SDS011;1366;47.988;7.856;2022-09-28T04:04:54;1.37;;;1.30;;
2712;SDS011;1366;47.988;7.856;2022-09-28T04:07:21;1.70;;;0.93;;
2712;SDS011;1366;47.988;7.856;2022-09-28T04:09:47;1.57;;;1.00;;
2712;SDS011;1366;47.988;7.856;2022-09-28T04:12:13;1.13;;;0.80;;
2712;SDS011;1366;47.988;7.856;2022-09-28T04:14:39;0.77;;;0.70;;
2712;SDS011;1366;47.988;7.856;2022-09-28T04:17:05;2.30;;;0.97;;
2712;SDS011;1366;47.988;7.856;2022-09-28T04:19:31;1.13;;;1.10;;
2712;SDS011;1366;47.988;7.856;2022-09-28T04:21:57;1.33;;;0.80;;
2712;SDS011;1366;47.988;7.856;2022-09-28T04:24:25;0.93;;;0.93;;
2712;SDS011;1366;47.988;7.856;2022-09-28T04:26:51;1.00;;;0.90;;
2712;SDS011;1366;47.988;7.856;2022-09-28T04:29:37;1.80;;;1.20;;
2712;SDS011;1366;47.988;7.856;2022-09-28T04:32:08;0.90;;;0.90;;
2712;SDS011;1366;47.988;7.856;2022-09-28T04:34:34;0.80;;;0.80;;
2712;SDS011;1366;47.988;7.856;2022-09-28T04:37:01;0.80;;;0.80;;
2712;SDS011;1366;47.988;7.856;2022-09-28T04:39:27;2.50;;;0.90;;
2712;SDS011;1366;47.988;7.856;2022-09-28T04:41:53;1.17;;;0.90;;
2712;SDS011;1366;47.988;7.856;2022-09-28T04:44:19;0.90;;;0.90;;
2712;SDS011;1366;47.988;7.856;2022-09-28T04:46:45;1.00;;;1.00;;
2712;SDS011;1366;47.988;7.856;2022-09-28T04:49:11;0.70;;;0.70;;
2712;SDS011;1366;47.988;7.856;2022-09-28T04:51:37;0.77;;;0.77;;
2712;SDS011;1366;47.988;7.856;2022-09-28T04:54:03;1.30;;;0.90;;
2712;SDS011;1366;47.988;7.856;2022-09-28T04:56:29;0.80;;;0.80;;
2712;SDS011;1366;47.988;7.856;2022-09-28T04:58:55;0.70;;;0.70;;
2712;SDS011;1366;47.988;7.856;2022-09-28T05:01:21;1.57;;;1.10;;
2712;SDS011;1366;47.988;7.856;2022-09-28T05:03:48;1.10;;;1.00;;
2712;SDS011;1366;47.988;7.856;2022-09-28T05:06:15;0.70;;;0.70;;
2712;SDS011;1366;47.988;7.856;2022-09-28T05:08:42;0.80;;;0.80;;
2712;SDS011;1366;47.988;7.856;2022-09-28T05:11:11;0.70;;;0.70;;
2712;SDS011;1366;47.988;7.856;2022-09-28T05:13:43;0.80;;;0.80;;
2712;SDS011;1366;47.988;7.856;2022-09-28T05:16:10;1.10;;;1.00;;
2712;SDS011;1366;47.988;7.856;2022-09-28T05:18:37;0.80;;;0.80;;
2712;SDS011;1366;47.988;7.856;2022-09-28T05:21:07;0.80;;;0.80;;
2712;SDS011;1366;47.988;7.856;2022-09-28T05:23:34;0.83;;;0.80;;
2712;SDS011;1366;47.988;7.856;2022-09-28T05:26:00;1.20;;;0.90;;
2712;SDS011;1366;47.988;7.856;2022-09-28T05:28:27;1.00;;;0.90;;
2712;SDS011;1366;47.988;7.856;2022-09-28T05:30:57;0.90;;;0.90;;
2712;SDS011;1366;47.988;7.856;2022-09-28T05:33:24;1.23;;;1.13;;
2712;SDS011;1366;47.988;7.856;2022-09-28T05:35:50;0.87;;;0.87;;
2712;SDS011;1366;47.988;7.856;2022-09-28T05:38:16;1.10;;;1.10;;
2712;SDS011;1366;47.988;7.856;2022-09-28T05:40:42;1.13;;;1.13;;
2712;SDS011;1366;47.988;7.856;2022-09-28T05:43:08;1.00;;;1.00;;
2712;SDS011;1366;47.988;7.856;2022-09-28T05:45:34;2.17;;;0.90;;
2712;SDS011;1366;47.988;7.856;2022-09-28T05:48:00;0.90;;;0.90;;
2712;SDS011;1366;47.988;7.856;2022-09-28T05:50:26;1.47;;;1.07;;
2712;SDS011;1366;47.988;7.856;2022-09-28T05:53:10;0.80;;;0.80;;
2712;SDS011;1366;47.988;7.856;2022-09-28T05:55:37;2.13;;;1.00;;
2712;SDS011;1366;47.988;7.856;2022-09-28T05:58:04;0.83;;;0.83;;
2712;SDS011;1366;47.988;7.856;2022-09-28T06:00:31;1.00;;;0.90;;
2712;SDS011;1366;47.988;7.856;2022-09-28T06:02:58;0.70;;;0.70;;
2712;SDS011;1366;47.988;7.856;2022-09-28T06:05:25;0.87;;;0.87;;
2712;SDS011;1366;47.988;7.856;2022-09-28T06:07:51;1.00;;;0.90;;
2712;SDS011;1366;47.988;7.856;2022-09-28T06:10:19;0.80;;;0.80;;
2712;SDS011;1366;47.988;7.856;2022-09-28T06:12:45;1.53;;;0.80;;
2712;SDS011;1366;47.988;7.856;2022-09-28T06:15:13;0.90;;;0.90;;
2712;SDS011;1366;47.988;7.856;2022-09-28T06:17:39;1.00;;;1.00;;
2712;SDS011;1366;47.988;7.856;2022-09-28T06:20:06;1.20;;;1.07;;
2712;SDS011;1366;47.988;7.856;2022-09-28T06:22:32;1.23;;;1.00;;
2712;SDS011;1366;47.988;7.856;2022-09-28T06:24:58;1.07;;;1.07;;
2712;SDS011;1366;47.988;7.856;2022-09-28T06:27:24;0.90;;;0.90;;
2712;SDS011;1366;47.988;7.856;2022-09-28T06:29:50;1.00;;;1.00;;
2712;SDS011;1366;47.988;7.856;2022-09-28T06:32:16;1.00;;;1.00;;
2712;SDS011;1366;47.988;7.856;2022-09-28T06:34:42;1.70;;;1.30;;
2712;SDS011;1366;47.988;7.856;2022-09-28T06:37:08;1.50;;;1.40;;
2712;SDS011;1366;47.988;7.856;2022-09-28T06:39:34;1.43;;;1.33;;
2712;SDS011;1366;47.988;7.856;2022-09-28T06:42:00;3.40;;;1.97;;
2712;SDS011;1366;47.988;7.856;2022-09-28T06:44:27;1.90;;;1.77;;
2712;SDS011;1366;47.988;7.856;2022-09-28T06:46:53;3.77;;;1.90;;
2712;SDS011;1366;47.988;7.856;2022-09-28T06:49:22;1.57;;;1.47;;
2712;SDS011;1366;47.988;7.856;2022-09-28T06:51:53;2.20;;;1.60;;
2712;SDS011;1366;47.988;7.856;2022-09-28T06:54:19;2.60;;;1.50;;
2712;SDS011;1366;47.988;7.856;2022-09-28T06:56:49;1.83;;;1.63;;
2712;SDS011;1366;47.988;7.856;2022-09-28T06:59:15;1.60;;;1.50;;
2712;SDS011;1366;47.988;7.856;2022-09-28T07:01:41;1.47;;;1.37;;
2712;SDS011;1366;47.988;7.856;2022-09-28T07:04:07;1.60;;;1.50;;
2712;SDS011;1366;47.988;7.856;2022-09-28T07:06:33;2.20;;;1.93;;
2712;SDS011;1366;47.988;7.856;2022-09-28T07:08:59;1.70;;;1.60;;
2712;SDS011;1366;47.988;7.856;2022-09-28T07:11:30;1.50;;;1.40;;
2712;SDS011;1366;47.988;7.856;2022-09-28T07:13:58;3.43;;;1.20;;
2712;SDS011;1366;47.988;7.856;2022-09-28T07:16:24;1.80;;;1.70;;
2712;SDS011;1366;47.988;7.856;2022-09-28T07:18:50;3.03;;;1.53;;
2712;SDS011;1366;47.988;7.856;2022-09-28T07:21:16;2.53;;;2.13;;
2712;SDS011;1366;47.988;7.856;2022-09-28T07:23:42;3.67;;;1.50;;
2712;SDS011;1366;47.988;7.856;2022-09-28T07:26:08;3.80;;;2.03;;
2712;SDS011;1366;47.988;7.856;2022-09-28T07:28:34;1.60;;;1.50;;
2712;SDS011;1366;47.988;7.856;2022-09-28T07:31:01;1.60;;;1.50;;
2712;SDS011;1366;47.988;7.856;2022-09-28T07:33:27;2.50;;;1.40;;
2712;SDS011;1366;47.988;7.856;2022-09-28T07:35:56;2.17;;;1.73;;
2712;SDS011;1366;47.988;7.856;2022-09-28T07:38:22;2.10;;;1.90;;
2712;SDS011;1366;47.988;7.856;2022-09-28T07:40:50;2.33;;;2.10;;
2712;SDS011;1366;47.988;7.856;2022-09-28T07:43:34;1.80;;;1.70;;
2712;SDS011;1366;47.988;7.856;2022-09-28T07:46:00;2.03;;;1.70;;
2712;SDS011;1366;47.988;7.856;2022-09-28T07:48:26;1.70;;;1.60;;
2712;SDS011;1366;47.988;7.856;2022-09-28T07:50:54;1.77;;;1.67;;
2712;SDS011;1366;47.988;7.856;2022-09-28T07:53:22;1.70;;;1.60;;
2712;SDS011;1366;47.988;7.856;2022-09-28T07:55:51;2.30;;;1.50;;
2712;SDS011;1366;47.988;7.856;2022-09-28T07:58:17;1.70;;;1.60;;
2712;SDS011;1366;47.988;7.856;2022-09-28T08:00:45;2.30;;;1.70;;
2712;SDS011;1366;47.988;7.856;2022-09-28T08:03:12;2.33;;;1.63;;
2712;SDS011;1366;47.988;7.856;2022-09-28T08:05:38;1.70;;;1.60;;
2712;SDS011;1366;47.988;7.856;2022-09-28T08:08:05;2.00;;;1.80;;
2712;SDS011;1366;47.988;7.856;2022-09-28T08:10:31;1.60;;;1.50;;
2712;SDS011;1366;47.988;7.856;2022-09-28T08:12:57;2.07;;;1.50;;
2712;SDS011;1366;47.988;7.856;2022-09-28T08:15:26;1.50;;;1.40;;
2712;SDS011;1366;47.988;7.856;2022-09-28T08:17:53;5.13;;;1.20;;
2712;SDS011;1366;47.988;7.856;2022-09-28T08:20:19;1.43;;;1.33;;
2712;SDS011;1366;47.988;7.856;2022-09-28T08:23:04;1.73;;;1.60;;
2712;SDS011;1366;47.988;7.856;2022-09-28T08:25:31;1.73;;;1.43;;
2712;SDS011;1366;47.988;7.856;2022-09-28T08:27:59;2.10;;;1.50;;
2712;SDS011;1366;47.988;7.856;2022-09-28T08:30:25;1.63;;;1.53;;
2712;SDS011;1366;47.988;7.856;2022-09-28T08:32:51;2.20;;;2.10;;
2712;SDS011;1366;47.988;7.856;2022-09-28T08:35:17;2.40;;;1.80;;
2712;SDS011;1366;47.988;7.856;2022-09-28T08:37:50;2.10;;;2.00;;
2712;SDS011;1366;47.988;7.856;2022-09-28T08:40:19;1.67;;;1.57;;
2712;SDS011;1366;47.988;7.856;2022-09-28T08:42:48;4.00;;;1.53;;
2712;SDS011;1366;47.988;7.856;2022-09-28T08:45:18;1.80;;;1.63;;
2712;SDS011;1366;47.988;7.856;2022-09-28T08:50:33;2.30;;;2.10;;
2712;SDS011;1366;47.988;7.856;2022-09-28T08:53:04;1.90;;;1.70;;
2712;SDS011;1366;47.988;7.856;2022-09-28T08:55:33;2.87;;;2.27;;
2712;SDS011;1366;47.988;7.856;2022-09-28T08:58:04;3.53;;;2.00;;
2712;SDS011;1366;47.988;7.856;2022-09-28T09:03:07;2.10;;;1.90;;
2712;SDS011;1366;47.988;7.856;2022-09-28T09:10:52;2.27;;;2.17;;
2712;SDS011;1366;47.988;7.856;2022-09-28T09:13:26;3.33;;;2.60;;
2712;SDS011;1366;47.988;7.856;2022-09-28T09:21:24;4.77;;;4.37;;
2712;SDS011;1366;47.988;7.856;2022-09-28T09:23:54;3.73;;;3.20;;
2712;SDS011;1366;47.988;7.856;2022-09-28T09:26:25;4.00;;;2.80;;
2712;SDS011;1366;47.988;7.856;2022-09-28T09:31:35;3.60;;;2.73;;
2712;SDS011;1366;47.988;7.856;2022-09-28T09:41:59;4.73;;;2.63;;
2712;SDS011;1366;47.988;7.856;2022-09-28T09:49:54;2.30;;;2.20;;
2712;SDS011;1366;47.988;7.856;2022-09-28T09:52:45;2.30;;;2.10;;
2712;SDS011;1366;47.988;7.856;2022-09-28T09:55:19;1.60;;;1.50;;
2712;SDS011;1366;47.988;7.856;2022-09-28T09:57:53;1.83;;;1.73;;
2712;SDS011;1366;47.988;7.856;2022-09-28T10:00:21;2.20;;;2.00;;
2712;SDS011;1366;47.988;7.856;2022-09-28T10:02:48;1.93;;;1.77;;
2712;SDS011;1366;47.988;7.856;2022-09-28T10:10:15;2.30;;;2.10;;
2712;SDS011;1366;47.988;7.856;2022-09-28T10:12:42;2.93;;;2.40;;
2712;SDS011;1366;47.988;7.856;2022-09-28T10:15:12;1.70;;;1.60;;
2712;SDS011;1366;47.988;7.856;2022-09-28T10:17:39;2.07;;;1.97;;
2712;SDS011;1366;47.988;7.856;2022-09-28T10:20:09;2.10;;;2.00;;
2712;SDS011;1366;47.988;7.856;2022-09-28T10:22:36;2.10;;;1.90;;
2712;SDS011;1366;47.988;7.856;2022-09-28T10:25:03;2.47;;;2.23;;
2712;SDS011;1366;47.988;7.856;2022-09-28T10:27:31;1.70;;;1.60;;
2712;SDS011;1366;47.988;7.856;2022-09-28T10:29:59;2.07;;;1.97;;
2712;SDS011;1366;47.988;7.856;2022-09-28T10:32:35;1.77;;;1.50;;
2712;SDS011;1366;47.988;7.856;2022-09-28T10:35:11;1.80;;;1.70;;
2712;SDS011;1366;47.988;7.856;2022-09-28T10:40:38;2.77;;;1.57;;
2712;SDS011;1366;47.988;7.856;2022-09-28T10:43:07;1.70;;;1.60;;
2712;SDS011;1366;47.988;7.856;2022-09-28T10:45:41;1.80;;;1.70;;
2712;SDS011;1366;47.988;7.856;2022-09-28T10:48:19;2.30;;;1.50;;
2712;SDS011;1366;47.988;7.856;2022-09-28T10:51:03;3.07;;;2.20;;
2712;SDS011;1366;47.988;7.856;2022-09-28T10:53:30;1.60;;;1.50;;
2712;SDS011;1366;47.988;7.856;2022-09-28T10:58:41;3.93;;;1.90;;
2712;SDS011;1366;47.988;7.856;2022-09-28T11:01:17;2.07;;;1.90;;
2712;SDS011;1366;47.988;7.856;2022-09-28T11:03:48;2.90;;;1.90;;
2712;SDS011;1366;47.988;7.856;2022-09-28T11:06:21;1.73;;;1.63;;
2712;SDS011;1366;47.988;7.856;2022-09-28T11:08:47;3.47;;;1.70;;
2712;SDS011;1366;47.988;7.856;2022-09-28T11:11:14;1.60;;;1.50;;
2712;SDS011;1366;47.988;7.856;2022-09-28T11:13:44;1.90;;;1.80;;
2712;SDS011;1366;47.988;7.856;2022-09-28T11:16:25;1.73;;;1.63;;
2712;SDS011;1366;47.988;7.856;2022-09-28T11:18:52;2.60;;;2.13;;
2712;SDS011;1366;47.988;7.856;2022-09-28T11:21:22;3.37;;;1.90;;
2712;SDS011;1366;47.988;7.856;2022-09-28T11:26:35;3.07;;;2.77;;
2712;SDS011;1366;47.988;7.856;2022-09-28T11:29:02;2.23;;;2.10;;
2712;SDS011;1366;47.988;7.856;2022-09-28T11:31:29;3.40;;;1.80;;
2712;SDS011;1366;47.988;7.856;2022-09-28T11:34:03;1.90;;;1.80;;
2712;SDS011;1366;47.988;7.856;2022-09-28T11:37:05;1.90;;;1.80;;
2712;SDS011;1366;47.988;7.856;2022-09-28T11:49:27;2.40;;;2.30;;
2712;SDS011;1366;47.988;7.856;2022-09-28T11:51:55;5.40;;;2.80;;
2712;SDS011;1366;47.988;7.856;2022-09-28T11:56:50;3.73;;;2.97;;
2712;SDS011;1366;47.988;7.856;2022-09-28T11:59:27;5.60;;;2.50;;
2712;SDS011;1366;47.988;7.856;2022-09-28T12:01:56;2.33;;;2.03;;
2712;SDS011;1366;47.988;7.856;2022-09-28T12:04:24;3.07;;;2.53;;
2712;SDS011;1366;47.988;7.856;2022-09-28T12:07:05;1.83;;;1.73;;
2712;SDS011;1366;47.988;7.856;2022-09-28T12:09:40;1.67;;;1.57;;
2712;SDS011;1366;47.988;7.856;2022-09-28T12:15:02;2.10;;;1.60;;
2712;SDS011;1366;47.988;7.856;2022-09-28T12:17:35;1.93;;;1.83;;
2712;SDS011;1366;47.988;7.856;2022-09-28T12:22:44;1.90;;;1.80;;
2712;SDS011;1366;47.988;7.856;2022-09-28T12:25:15;2.40;;;1.43;;
2712;SDS011;1366;47.988;7.856;2022-09-28T12:27:58;2.30;;;2.10;;
2712;SDS011;1366;47.988;7.856;2022-09-28T12:30:26;2.70;;;1.77;;
2712;SDS011;1366;47.988;7.856;2022-09-28T12:33:08;2.30;;;1.67;;
2712;SDS011;1366;47.988;7.856;2022-09-28T12:40:51;2.00;;;1.77;;
2712;SDS011;1366;47.988;7.856;2022-09-28T12:43:37;1.83;;;1.73;;
2712;SDS011;1366;47.988;7.856;2022-09-28T12:49:08;2.60;;;2.37;;
2712;SDS011;1366;47.988;7.856;2022-09-28T12:51:43;2.17;;;1.97;;
2712;SDS011;1366;47.988;7.856;2022-09-28T12:59:39;2.77;;;2.57;;
2712;SDS011;1366;47.988;7.856;2022-09-28T13:04:49;3.03;;;2.57;;
2712;SDS011;1366;47.988;7.856;2022-09-28T13:07:22;3.43;;;3.13;;
2712;SDS011;1366;47.988;7.856;2022-09-28T13:12:38;3.70;;;2.30;;
2712;SDS011;1366;47.988;7.856;2022-09-28T13:22:47;4.77;;;3.20;;
2712;SDS011;1366;47.988;7.856;2022-09-28T13:25:16;3.60;;;2.90;;
2712;SDS011;1366;47.988;7.856;2022-09-28T13:27:49;3.40;;;2.73;;
2712;SDS011;1366;47.988;7.856;2022-09-28T13:30:16;2.83;;;2.63;;
2712;SDS011;1366;47.988;7.856;2022-09-28T13:32:43;3.70;;;3.13;;
2712;SDS011;1366;47.988;7.856;2022-09-28T13:35:13;3.13;;;2.83;;
2712;SDS011;1366;47.988;7.856;2022-09-28T13:37:40;2.20;;;2.00;;
2712;SDS011;1366;47.988;7.856;2022-09-28T13:40:06;2.40;;;2.20;;
2712;SDS011;1366;47.988;7.856;2022-09-28T14:10:57;2.60;;;1.93;;
2712;SDS011;1366;47.988;7.856;2022-09-28T14:21:42;2.73;;;2.50;;
2712;SDS011;1366;47.988;7.856;2022-09-28T14:29:26;3.60;;;3.30;;
2712;SDS011;1366;47.988;7.856;2022-09-28T14:31:57;5.30;;;4.13;;
2712;SDS011;1366;47.988;7.856;2022-09-28T14:34:29;4.57;;;4.17;;
2712;SDS011;1366;47.988;7.856;2022-09-28T14:36:57;4.10;;;3.70;;
2712;SDS011;1366;47.988;7.856;2022-09-28T14:39:49;3.87;;;3.50;;
2712;SDS011;1366;47.988;7.856;2022-09-28T14:42:34;3.80;;;3.30;;
2712;SDS011;1366;47.988;7.856;2022-09-28T14:49:59;3.07;;;2.87;;
2712;SDS011;1366;47.988;7.856;2022-09-28T14:55:31;3.87;;;3.57;;
2712;SDS011;1366;47.988;7.856;2022-09-28T14:57:59;3.93;;;3.50;;
2712;SDS011;1366;47.988;7.856;2022-09-28T15:00:28;3.33;;;3.03;;
2712;SDS011;1366;47.988;7.856;2022-09-28T15:02:59;3.23;;;3.03;;
2712;SDS011;1366;47.988;7.856;2022-09-28T15:05:28;2.80;;;2.60;;
2712;SDS011;1366;47.988;7.856;2022-09-28T15:07:55;2.50;;;2.30;;
2712;SDS011;1366;47.988;7.856;2022-09-28T15:10:24;3.13;;;2.47;;
2712;SDS011;1366;47.988;7.856;2022-09-28T15:12:52;2.30;;;2.10;;
2712;SDS011;1366;47.988;7.856;2022-09-28T15:15:24;2.77;;;2.13;;
2712;SDS011;1366;47.988;7.856;2022-09-28T15:17:55;1.87;;;1.77;;
2712;SDS011;1366;47.988;7.856;2022-09-28T15:20:28;1.67;;;1.57;;
2712;SDS011;1366;47.988;7.856;2022-09-28T15:22:55;1.57;;;1.30;;
2712;SDS011;1366;47.988;7.856;2022-09-28T15:25:23;1.80;;;1.70;;
2712;SDS011;1366;47.988;7.856;2022-09-28T15:27:51;3.43;;;2.50;;
2712;SDS011;1366;47.988;7.856;2022-09-28T15:32:53;2.13;;;2.03;;
2712;SDS011;1366;47.988;7.856;2022-09-28T15:37:47;3.83;;;2.50;;
2712;SDS011;1366;47.988;7.856;2022-09-28T15:40:27;2.60;;;2.40;;
2712;SDS011;1366;47.988;7.856;2022-09-28T15:42:54;3.47;;;3.17;;
2712;SDS011;1366;47.988;7.856;2022-09-28T15:45:25;2.87;;;2.67;;
2712;SDS011;1366;47.988;7.856;2022-09-28T15:50:37;3.63;;;2.90;;
2712;SDS011;1366;47.988;7.856;2022-09-28T15:53:13;2.83;;;2.60;;
2712;SDS011;1366;47.988;7.856;2022-09-28T15:55:42;2.03;;;1.83;;
2712;SDS011;1366;47.988;7.856;2022-09-28T15:58:16;2.00;;;1.70;;
2712;SDS011;1366;47.988;7.856;2022-09-28T16:00:45;2.60;;;2.40;;
2712;SDS011;1366;47.988;7.856;2022-09-28T16:03:22;2.20;;;2.10;;
2712;SDS011;1366;47.988;7.856;2022-09-28T16:05:50;2.90;;;2.70;;
2712;SDS011;1366;47.988;7.856;2022-09-28T16:08:18;3.77;;;2.60;;
2712;SDS011;1366;47.988;7.856;2022-09-28T16:13:17;2.00;;;1.90;;
2712;SDS011;1366;47.988;7.856;2022-09-28T16:15:44;2.17;;;1.97;;
2712;SDS011;1366;47.988;7.856;2022-09-28T16:20:45;2.30;;;2.20;;
2712;SDS011;1366;47.988;7.856;2022-09-28T16:25:56;3.33;;;2.63;;
2712;SDS011;1366;47.988;7.856;2022-09-28T16:28:45;3.23;;;2.40;;
2712;SDS011;1366;47.988;7.856;2022-09-28T16:33:43;2.37;;;2.27;;
2712;SDS011;1366;47.988;7.856;2022-09-28T16:36:11;2.90;;;2.60;;
2712;SDS011;1366;47.988;7.856;2022-09-28T16:38:37;2.50;;;2.33;;
2712;SDS011;1366;47.988;7.856;2022-09-28T16:41:04;2.67;;;2.47;;
2712;SDS011;1366;47.988;7.856;2022-09-28T16:43:31;3.20;;;2.10;;
2712;SDS011;1366;47.988;7.856;2022-09-28T16:48:30;3.10;;;2.90;;
2712;SDS011;1366;47.988;7.856;2022-09-28T16:50:56;2.90;;;2.70;;
2712;SDS011;1366;47.988;7.856;2022-09-28T16:53:22;3.57;;;3.37;;
2712;SDS011;1366;47.988;7.856;2022-09-28T16:56:07;3.97;;;3.10;;
2712;SDS011;1366;47.988;7.856;2022-09-28T16:58:33;3.53;;;3.33;;
2712;SDS011;1366;47.988;7.856;2022-09-28T17:01:03;3.80;;;3.47;;
2712;SDS011;1366;47.988;7.856;2022-09-28T17:03:32;3.77;;;3.47;;
2712;SDS011;1366;47.988;7.856;2022-09-28T17:05:58;5.30;;;4.03;;
2712;SDS011;1366;47.988;7.856;2022-09-28T17:08:24;4.00;;;3.60;;
2712;SDS011;1366;47.988;7.856;2022-09-28T17:10:52;5.10;;;3.77;;
2712;SDS011;1366;47.988;7.856;2022-09-28T17:13:23;4.33;;;3.93;;
2712;SDS011;1366;47.988;7.856;2022-09-28T17:15:57;4.87;;;4.47;;
2712;SDS011;1366;47.988;7.856;2022-09-28T17:18:23;4.93;;;4.30;;
2712;SDS011;1366;47.988;7.856;2022-09-28T17:20:50;4.33;;;3.90;;
2712;SDS011;1366;47.988;7.856;2022-09-28T17:23:18;3.87;;;3.57;;
2712;SDS011;1366;47.988;7.856;2022-09-28T17:25:45;4.17;;;3.77;;
2712;SDS011;1366;47.988;7.856;2022-09-28T17:28:21;4.63;;;4.10;;
2712;SDS011;1366;47.988;7.856;2022-09-28T17:30:48;3.90;;;3.60;;
2712;SDS011;1366;47.988;7.856;2022-09-28T17:33:14;4.90;;;4.40;;
2712;SDS011;1366;47.988;7.856;2022-09-28T17:35:41;4.50;;;4.17;;
2712;SDS011;1366;47.988;7.856;2022-09-28T17:38:08;4.70;;;4.40;;
2712;SDS011;1366;47.988;7.856;2022-09-28T17:40:35;6.27;;;4.67;;
2712;SDS011;1366;47.988;7.856;2022-09-28T17:43:01;5.60;;;5.10;;
2712;SDS011;1366;47.988;7.856;2022-09-28T17:45:29;5.93;;;5.40;;
2712;SDS011;1366;47.988;7.856;2022-09-28T17:47:56;5.57;;;5.07;;
2712;SDS011;1366;47.988;7.856;2022-09-28T17:52:49;6.83;;;6.23;;
2712;SDS011;1366;47.988;7.856;2022-09-28T17:55:16;6.30;;;5.70;;
2712;SDS011;1366;47.988;7.856;2022-09-28T17:57:43;6.00;;;5.40;;
2712;SDS011;1366;47.988;7.856;2022-09-28T18:00:10;5.90;;;5.33;;
2712;SDS011;1366;47.988;7.856;2022-09-28T18:02:37;6.10;;;5.60;;
2712;SDS011;1366;47.988;7.856;2022-09-28T18:05:03;6.60;;;6.00;;
2712;SDS011;1366;47.988;7.856;2022-09-28T18:07:29;7.00;;;6.40;;
2712;SDS011;1366;47.988;7.856;2022-09-28T18:09:58;7.10;;;6.40;;
2712;SDS011;1366;47.988;7.856;2022-09-28T18:12:24;6.60;;;6.10;;
2712;SDS011;1366;47.988;7.856;2022-09-28T18:14:51;6.37;;;5.77;;
2712;SDS011;1366;47.988;7.856;2022-09-28T18:17:17;6.50;;;5.90;;
2712;SDS011;1366;47.988;7.856;2022-09-28T18:19:43;5.83;;;5.33;;
2712;SDS011;1366;47.988;7.856;2022-09-28T18:22:09;6.80;;;6.10;;
2712;SDS011;1366;47.988;7.856;2022-09-28T18:24:35;7.97;;;6.10;;
2712;SDS011;1366;47.988;7.856;2022-09-28T18:27:01;7.03;;;6.43;;
2712;SDS011;1366;47.988;7.856;2022-09-28T18:29:27;6.33;;;5.80;;
2712;SDS011;1366;47.988;7.856;2022-09-28T18:31:54;6.57;;;5.97;;
2712;SDS011;1366;47.988;7.856;2022-09-28T18:34:20;6.47;;;5.87;;
2712;SDS011;1366;47.988;7.856;2022-09-28T18:36:46;6.20;;;5.60;;
2712;SDS011;1366;47.988;7.856;2022-09-28T18:39:12;6.00;;;5.50;;
2712;SDS011;1366;47.988;7.856;2022-09-28T18:41:38;5.70;;;5.23;;
2712;SDS011;1366;47.988;7.856;2022-09-28T18:44:04;5.60;;;5.10;;
2712;SDS011;1366;47.988;7.856;2022-09-28T18:46:30;5.30;;;4.80;;
2712;SDS011;1366;47.988;7.856;2022-09-28T18:49:00;5.00;;;4.60;;
2712;SDS011;1366;47.988;7.856;2022-09-28T18:51:26;5.27;;;4.80;;
2712;SDS011;1366;47.988;7.856;2022-09-28T18:53:52;3.90;;;3.70;;
2712;SDS011;1366;47.988;7.856;2022-09-28T18:56:18;4.50;;;4.13;;
2712;SDS011;1366;47.988;7.856;2022-09-28T18:58:45;4.80;;;4.40;;
2712;SDS011;1366;47.988;7.856;2022-09-28T19:01:13;4.70;;;4.30;;
2712;SDS011;1366;47.988;7.856;2022-09-28T19:03:39;4.40;;;4.00;;
2712;SDS011;1366;47.988;7.856;2022-09-28T19:06:10;4.43;;;4.03;;
2712;SDS011;1366;47.988;7.856;2022-09-28T19:08:37;4.90;;;4.50;;
2712;SDS011;1366;47.988;7.856;2022-09-28T19:11:13;4.80;;;4.30;;
2712;SDS011;1366;47.988;7.856;2022-09-28T19:13:39;4.87;;;4.47;;
2712;SDS011;1366;47.988;7.856;2022-09-28T19:16:08;8.13;;;4.73;;
2712;SDS011;1366;47.988;7.856;2022-09-28T19:18:35;5.07;;;4.67;;
2712;SDS011;1366;47.988;7.856;2022-09-28T19:21:02;4.97;;;4.57;;
2712;SDS011;1366;47.988;7.856;2022-09-28T19:23:29;4.63;;;4.23;;
2712;SDS011;1366;47.988;7.856;2022-09-28T19:25:55;5.30;;;4.80;;
2712;SDS011;1366;47.988;7.856;2022-09-28T19:28:21;5.33;;;4.83;;
2712;SDS011;1366;47.988;7.856;2022-09-28T19:30:57;3.90;;;3.60;;
2712;SDS011;1366;47.988;7.856;2022-09-28T19:33:23;4.37;;;3.97;;
2712;SDS011;1366;47.988;7.856;2022-09-28T19:38:20;4.53;;;4.13;;
2712;SDS011;1366;47.988;7.856;2022-09-28T19:40:46;5.27;;;4.03;;
2712;SDS011;1366;47.988;7.856;2022-09-28T19:43:12;4.83;;;4.37;;
2712;SDS011;1366;47.988;7.856;2022-09-28T19:45:38;4.70;;;4.10;;
2712;SDS011;1366;47.988;7.856;2022-09-28T19:48:04;4.63;;;4.23;;
2712;SDS011;1366;47.988;7.856;2022-09-28T19:50:30;4.30;;;3.90;;
2712;SDS011;1366;47.988;7.856;2022-09-28T19:52:57;4.40;;;3.97;;
2712;SDS011;1366;47.988;7.856;2022-09-28T19:55:26;4.73;;;4.33;;
2712;SDS011;1366;47.988;7.856;2022-09-28T19:57:55;3.90;;;3.50;;
2712;SDS011;1366;47.988;7.856;2022-09-28T20:00:25;4.00;;;3.70;;
2712;SDS011;1366;47.988;7.856;2022-09-28T20:02:51;3.90;;;3.60;;
2712;SDS011;1366;47.988;7.856;2022-09-28T20:05:18;3.90;;;3.60;;
2712;SDS011;1366;47.988;7.856;2022-09-28T20:07:44;6.70;;;3.70;;
2712;SDS011;1366;47.988;7.856;2022-09-28T20:10:10;3.80;;;3.50;;
2712;SDS011;1366;47.988;7.856;2022-09-28T20:12:37;4.10;;;3.50;;
2712;SDS011;1366;47.988;7.856;2022-09-28T20:15:05;4.10;;;3.70;;
2712;SDS011;1366;47.988;7.856;2022-09-28T20:17:34;4.30;;;3.90;;
2712;SDS011;1366;47.988;7.856;2022-09-28T20:20:00;3.87;;;3.57;;
2712;SDS011;1366;47.988;7.856;2022-09-28T20:22:26;5.30;;;4.30;;
2712;SDS011;1366;47.988;7.856;2022-09-28T20:24:53;3.83;;;3.63;;
2712;SDS011;1366;47.988;7.856;2022-09-28T20:27:19;4.53;;;4.10;;
2712;SDS011;1366;47.988;7.856;2022-09-28T20:29:45;4.27;;;3.87;;
2712;SDS011;1366;47.988;7.856;2022-09-28T20:32:11;3.87;;;3.67;;
2712;SDS011;1366;47.988;7.856;2022-09-28T20:34:38;13.07;;;4.07;;
2712;SDS011;1366;47.988;7.856;2022-09-28T20:37:04;4.33;;;3.93;;
2712;SDS011;1366;47.988;7.856;2022-09-28T20:39:30;3.30;;;3.07;;
2712;SDS011;1366;47.988;7.856;2022-09-28T20:41:56;3.73;;;3.13;;
2712;SDS011;1366;47.988;7.856;2022-09-28T20:44:22;3.93;;;2.90;;
2712;SDS011;1366;47.988;7.856;2022-09-28T20:46:49;2.90;;;2.70;;
2712;SDS011;1366;47.988;7.856;2022-09-28T20:49:15;3.60;;;3.40;;
2712;SDS011;1366;47.988;7.856;2022-09-28T20:51:42;3.53;;;3.23;;
2712;SDS011;1366;47.988;7.856;2022-09-28T20:54:08;3.57;;;3.27;;
2712;SDS011;1366;47.988;7.856;2022-09-28T20:56:34;3.40;;;3.10;;
2712;SDS011;1366;47.988;7.856;2022-09-28T20:59:01;5.00;;;3.57;;
2712;SDS011;1366;47.988;7.856;2022-09-28T21:01:28;2.73;;;2.53;;
2712;SDS011;1366;47.988;7.856;2022-09-28T21:03:56;3.63;;;3.33;;
2712;SDS011;1366;47.988;7.856;2022-09-28T21:06:23;3.50;;;3.20;;
2712;SDS011;1366;47.988;7.856;2022-09-28T21:08:49;3.43;;;3.13;;
2712;SDS011;1366;47.988;7.856;2022-09-28T21:11:16;2.90;;;2.80;;
2712;SDS011;1366;47.988;7.856;2022-09-28T21:13:42;3.10;;;2.80;;
2712;SDS011;1366;47.988;7.856;2022-09-28T21:16:09;3.67;;;3.37;;
2712;SDS011;1366;47.988;7.856;2022-09-28T21:18:36;3.53;;;3.23;;
2712;SDS011;1366;47.988;7.856;2022-09-28T21:21:04;5.60;;;2.77;;
2712;SDS011;1366;47.988;7.856;2022-09-28T21:23:30;2.70;;;2.50;;
2712;SDS011;1366;47.988;7.856;2022-09-28T21:26:01;2.83;;;2.43;;
2712;SDS011;1366;47.988;7.856;2022-09-28T21:28:27;3.00;;;2.80;;
2712;SDS011;1366;47.988;7.856;2022-09-28T21:30:53;3.27;;;2.97;;
2712;SDS011;1366;47.988;7.856;2022-09-28T21:33:20;3.23;;;2.93;;
2712;SDS011;1366;47.988;7.856;2022-09-28T21:35:46;3.03;;;2.83;;
2712;SDS011;1366;47.988;7.856;2022-09-28T21:38:12;2.97;;;2.77;;
2712;SDS011;1366;47.988;7.856;2022-09-28T21:40:38;4.20;;;2.77;;
2712;SDS011;1366;47.988;7.856;2022-09-28T21:43:04;3.30;;;3.00;;
2712;SDS011;1366;47.988;7.856;2022-09-28T21:45:30;3.23;;;2.53;;
2712;SDS011;1366;47.988;7.856;2022-09-28T21:47:56;3.37;;;3.07;;
2712;SDS011;1366;47.988;7.856;2022-09-28T21:50:23;2.77;;;2.57;;
2712;SDS011;1366;47.988;7.856;2022-09-28T21:52:50;3.10;;;2.90;;
2712;SDS011;1366;47.988;7.856;2022-09-28T21:55:16;2.60;;;2.40;;
2712;SDS011;1366;47.988;7.856;2022-09-28T21:57:46;2.80;;;2.60;;
